createdAt,value
2023-01-04T00:01:04.196Z,8.90
2023-01-04T00:03:38.522Z,8.70
2023-01-04T00:06:13.373Z,8.57
2023-01-04T00:08:39.996Z,8.95
2023-01-04T00:11:10.606Z,9.00
2023-01-04T00:13:44.361Z,8.57
2023-01-04T00:16:13.933Z,8.18
2023-01-04T00:18:47.363Z,8.43
2023-01-04T00:21:22.729Z,8.27
2023-01-04T00:23:57.370Z,9.20
2023-01-04T00:26:32.854Z,8.70
2023-01-04T00:29:08.357Z,8.70
2023-01-04T00:31:41.553Z,9.00
2023-01-04T00:34:12.855Z,9.70
2023-01-04T00:36:46.303Z,9.40
2023-01-04T00:39:21.328Z,9.05
2023-01-04T00:41:59.222Z,9.45
2023-01-04T00:44:33.289Z,8.63
2023-01-04T00:47:08.306Z,9.00
2023-01-04T00:49:34.893Z,9.68
2023-01-04T00:52:08.343Z,8.82
2023-01-04T00:54:41.326Z,8.82
2023-01-04T00:57:21.363Z,9.15
2023-01-04T00:59:47.993Z,9.48
2023-01-04T01:02:14.775Z,9.60
2023-01-04T01:04:48.305Z,8.90
2023-01-04T01:07:14.892Z,8.75
2023-01-04T01:09:41.489Z,9.18
2023-01-04T01:12:14.335Z,8.73
2023-01-04T01:14:40.937Z,8.77
2023-01-04T01:17:14.396Z,8.95
2023-01-04T01:19:41.129Z,8.10
2023-01-04T01:22:14.370Z,8.43
2023-01-04T01:24:47.378Z,8.45
2023-01-04T01:27:13.983Z,7.93
2023-01-04T01:29:40.567Z,8.55
2023-01-04T01:32:13.412Z,8.75
2023-01-04T01:34:40.088Z,8.93
2023-01-04T01:37:06.708Z,8.80
2023-01-04T01:39:40.318Z,8.35
2023-01-04T01:42:16.279Z,9.55
2023-01-04T01:44:43.057Z,8.60
2023-01-04T01:47:44.367Z,8.65
2023-01-04T01:50:22.225Z,8.70
2023-01-04T01:52:56.357Z,10.23
2023-01-04T01:55:30.319Z,9.30
2023-01-04T01:58:13.369Z,8.65
2023-01-04T02:00:40.150Z,8.55
2023-01-04T02:03:26.452Z,9.23
2023-01-04T02:05:55.827Z,8.70
2023-01-04T02:08:30.343Z,9.02
2023-01-04T02:11:04.538Z,9.10
2023-01-04T02:13:52.220Z,7.90
2023-01-04T02:16:51.477Z,7.85
2023-01-04T02:19:43.096Z,8.33
2023-01-04T02:22:41.360Z,7.82
2023-01-04T02:25:36.464Z,7.82
2023-01-04T02:28:37.371Z,8.10
2023-01-04T02:31:29.473Z,8.20
2023-01-04T02:34:17.394Z,8.13
2023-01-04T02:37:06.695Z,7.82
2023-01-04T02:39:54.371Z,8.37
2023-01-04T02:43:02.692Z,6.95
2023-01-04T02:45:43.348Z,8.25
2023-01-04T02:48:28.929Z,7.72
2023-01-04T02:51:05.376Z,7.93
2023-01-04T02:53:39.383Z,8.68
2023-01-04T02:56:45.362Z,7.88
2023-01-04T02:59:51.709Z,8.43
2023-01-04T03:03:11.459Z,7.63
2023-01-04T03:06:12.031Z,8.13
2023-01-04T03:09:03.358Z,8.13
2023-01-04T03:12:08.112Z,8.00
2023-01-04T03:14:46.282Z,8.40
2023-01-04T03:17:14.687Z,8.70
2023-01-04T03:20:01.345Z,8.18
2023-01-04T03:22:58.199Z,8.55
2023-01-04T03:26:05.296Z,8.00
2023-01-04T03:28:54.186Z,8.27
2023-01-04T03:32:01.316Z,8.82
2023-01-04T03:34:47.627Z,8.82
2023-01-04T03:37:34.295Z,8.50
2023-01-04T03:40:44.049Z,8.65
2023-01-04T03:43:44.286Z,8.45
2023-01-04T03:49:40.324Z,7.68
2023-01-04T03:52:09.291Z,8.02
2023-01-04T03:54:49.373Z,7.85
2023-01-04T03:57:23.340Z,8.00
2023-01-04T04:00:01.389Z,8.15
2023-01-04T04:02:31.154Z,8.40
2023-01-04T04:05:23.337Z,6.78
2023-01-04T04:08:08.719Z,7.40
2023-01-04T04:10:42.381Z,8.23
2023-01-04T04:13:08.972Z,7.22
2023-01-04T04:15:43.359Z,8.18
2023-01-04T04:18:09.949Z,7.43
2023-01-04T04:20:36.850Z,7.80
2023-01-04T04:23:10.391Z,7.85
2023-01-04T04:25:36.997Z,8.52
2023-01-04T04:28:03.747Z,7.65
2023-01-04T04:30:37.360Z,7.57
2023-01-04T04:33:10.342Z,8.80
2023-01-04T04:35:36.943Z,7.65
2023-01-04T04:38:03.660Z,8.10
2023-01-04T04:40:55.366Z,7.40
2023-01-04T04:43:21.968Z,7.50
2023-01-04T04:45:48.620Z,7.53
2023-01-04T04:48:21.301Z,7.13
2023-01-04T04:50:47.906Z,6.90
2023-01-04T04:53:21.351Z,7.03
2023-01-04T04:56:08.276Z,6.72
2023-01-04T04:58:42.419Z,6.65
2023-01-04T05:01:15.370Z,7.13
2023-01-04T05:03:48.356Z,7.60
2023-01-04T05:06:15.044Z,7.40
2023-01-04T05:08:48.328Z,7.50
2023-01-04T05:11:15.132Z,6.95
2023-01-04T05:13:48.347Z,6.57
2023-01-04T05:16:14.986Z,6.70
2023-01-04T05:18:41.593Z,6.90
2023-01-04T05:21:21.412Z,6.25
2023-01-04T05:23:47.991Z,6.93
2023-01-04T05:26:21.385Z,7.25
2023-01-04T05:28:53.411Z,6.63
2023-01-04T05:31:20.964Z,6.55
2023-01-04T05:33:54.342Z,6.60
2023-01-04T05:36:21.007Z,6.75
2023-01-04T05:38:54.377Z,6.80
2023-01-04T05:41:46.354Z,6.43
2023-01-04T05:44:13.025Z,6.88
2023-01-04T05:46:39.618Z,6.55
2023-01-04T05:49:12.367Z,7.90
2023-01-04T05:51:38.989Z,7.30
2023-01-04T05:54:05.575Z,6.18
2023-01-04T05:56:38.339Z,6.90
2023-01-04T05:59:11.322Z,6.68
2023-01-04T06:01:38.159Z,6.53
2023-01-04T06:04:12.443Z,6.40
2023-01-04T06:06:45.342Z,5.85
2023-01-04T06:09:25.269Z,5.60
2023-01-04T06:11:51.866Z,5.50
2023-01-04T06:14:25.356Z,6.05
2023-01-04T06:16:52.162Z,5.93
2023-01-04T06:19:18.869Z,5.60
2023-01-04T06:21:52.356Z,6.63
2023-01-04T06:24:19.376Z,5.45
2023-01-04T06:26:46.404Z,5.45
2023-01-04T06:29:20.287Z,5.38
2023-01-04T06:31:47.001Z,5.20
2023-01-04T06:34:26.858Z,5.55
2023-01-04T06:37:03.271Z,5.90
2023-01-04T06:39:36.278Z,5.43
2023-01-04T06:42:06.599Z,4.70
2023-01-04T06:44:40.596Z,5.55
2023-01-04T06:47:13.270Z,4.38
2023-01-04T06:49:39.990Z,5.00
2023-01-04T06:52:13.288Z,4.25
2023-01-04T06:54:39.901Z,4.28
2023-01-04T06:57:19.373Z,4.53
2023-01-04T06:59:46.011Z,4.38
2023-01-04T07:02:16.394Z,4.72
2023-01-04T07:04:50.400Z,4.40
2023-01-04T07:07:17.122Z,4.03
2023-01-04T07:09:50.314Z,4.57
2023-01-04T07:12:23.345Z,4.47
2023-01-04T07:14:50.036Z,4.38
2023-01-04T07:17:29.636Z,4.97
2023-01-04T07:19:56.545Z,4.00
2023-01-04T07:22:29.323Z,4.10
2023-01-04T07:24:55.993Z,4.45
2023-01-04T07:27:22.706Z,4.00
2023-01-04T07:29:56.289Z,3.63
2023-01-04T07:32:29.329Z,3.42
2023-01-04T07:35:02.295Z,3.80
2023-01-04T07:37:35.375Z,3.55
2023-01-04T07:40:01.979Z,3.22
2023-01-04T07:42:35.292Z,3.13
2023-01-04T07:45:08.277Z,3.35
2023-01-04T07:47:41.284Z,3.15
2023-01-04T07:50:08.237Z,3.17
2023-01-04T07:52:41.343Z,2.78
2023-01-04T07:55:08.362Z,3.50
2023-01-04T07:57:48.323Z,3.42
2023-01-04T08:00:22.293Z,3.80
2023-01-04T08:02:56.459Z,3.40
2023-01-04T08:05:31.277Z,2.92
2023-01-04T08:08:04.261Z,2.63
2023-01-04T08:10:30.908Z,3.22
2023-01-04T08:13:07.265Z,3.50
2023-01-04T08:15:40.515Z,3.88
2023-01-04T08:18:13.295Z,3.65
2023-01-04T08:20:46.304Z,3.60
2023-01-04T08:23:19.343Z,3.50
2023-01-04T08:25:52.299Z,3.83
2023-01-04T08:28:25.349Z,3.92
2023-01-04T08:30:58.394Z,3.78
2023-01-04T08:33:25.196Z,4.20
2023-01-04T08:35:58.366Z,4.57
2023-01-04T08:41:47.068Z,3.92
2023-01-04T08:44:05.078Z,4.20
2023-01-04T08:46:38.476Z,3.60
2023-01-04T08:49:05.110Z,4.03
2023-01-04T08:51:31.717Z,3.47
2023-01-04T08:54:05.337Z,3.80
2023-01-04T08:56:45.301Z,3.78
2023-01-04T08:59:20.264Z,3.90
2023-01-04T09:01:47.008Z,4.40
2023-01-04T09:04:20.486Z,3.90
2023-01-04T09:06:47.162Z,4.47
2023-01-04T09:09:14.331Z,4.60
2023-01-04T09:11:47.425Z,4.40
2023-01-04T09:14:14.065Z,4.65
2023-01-04T09:16:47.388Z,4.40
2023-01-04T09:19:19.722Z,5.10
2023-01-04T09:21:55.445Z,4.43
2023-01-04T09:24:22.439Z,5.13
2023-01-04T09:26:49.022Z,4.93
2023-01-04T09:29:22.281Z,4.75
2023-01-04T09:31:48.936Z,5.30
2023-01-04T09:34:22.331Z,5.43
2023-01-04T09:36:49.466Z,5.82
2023-01-04T09:39:24.121Z,5.25
2023-01-04T09:42:00.287Z,5.70
2023-01-04T09:45:22.490Z,5.55
2023-01-04T09:47:53.356Z,5.22
2023-01-04T09:50:38.272Z,5.38
2023-01-04T09:53:16.666Z,5.30
2023-01-04T09:56:03.301Z,6.18
2023-01-04T09:58:39.938Z,5.03
2023-01-04T10:01:32.388Z,5.32
2023-01-04T10:04:07.510Z,5.20
2023-01-04T10:06:41.273Z,5.22
2023-01-04T10:09:14.606Z,5.13
2023-01-04T10:12:03.349Z,5.47
2023-01-04T10:15:16.323Z,5.45
2023-01-04T10:21:33.702Z,5.43
2023-01-04T10:24:33.320Z,5.65
2023-01-04T10:27:14.996Z,5.78
2023-01-04T10:29:54.350Z,5.35
2023-01-04T10:32:42.788Z,5.53
2023-01-04T10:35:32.329Z,5.63
2023-01-04T10:38:01.989Z,5.28
2023-01-04T10:40:31.366Z,5.47
2023-01-04T10:44:09.776Z,4.78
2023-01-04T10:47:03.379Z,4.85
2023-01-04T10:49:51.760Z,4.55
2023-01-04T10:52:47.359Z,5.13
2023-01-04T10:55:24.001Z,4.70
2023-01-04T10:58:48.281Z,5.05
2023-01-04T11:01:45.482Z,4.47
2023-01-04T11:04:23.864Z,4.95
2023-01-04T11:07:28.318Z,4.90
2023-01-04T11:10:01.209Z,4.90
2023-01-04T11:12:34.376Z,6.22
2023-01-04T11:15:01.260Z,5.13
2023-01-04T11:17:28.721Z,4.45
2023-01-04T11:20:02.298Z,4.50
2023-01-04T11:22:48.400Z,4.45
2023-01-04T11:25:35.857Z,4.72
2023-01-04T11:28:27.270Z,4.28
2023-01-04T11:31:19.589Z,4.57
2023-01-04T11:34:08.325Z,5.13
2023-01-04T11:36:45.354Z,4.63
2023-01-04T11:39:31.281Z,4.20
2023-01-04T11:42:04.358Z,3.75
2023-01-04T11:44:39.271Z,3.92
2023-01-04T11:47:23.143Z,3.70
2023-01-04T11:49:57.294Z,4.15
2023-01-04T11:52:35.595Z,3.70
2023-01-04T11:55:32.320Z,3.33
2023-01-04T11:58:14.788Z,3.53
2023-01-04T12:01:00.367Z,3.47
2023-01-04T12:03:38.278Z,3.38
2023-01-04T12:06:23.334Z,3.67
2023-01-04T12:08:50.260Z,3.05
2023-01-04T12:11:37.343Z,3.50
2023-01-04T12:14:05.376Z,3.42
2023-01-04T12:16:50.326Z,3.45
2023-01-04T12:19:18.921Z,3.10
2023-01-04T12:21:56.351Z,2.95
2023-01-04T12:24:28.927Z,2.80
2023-01-04T12:27:03.417Z,2.97
2023-01-04T12:29:41.630Z,2.80
2023-01-04T12:32:18.275Z,3.28
2023-01-04T12:34:47.521Z,2.42
2023-01-04T12:37:55.318Z,2.70
2023-01-04T12:40:44.881Z,2.60
2023-01-04T12:43:30.300Z,2.55
2023-01-04T12:46:49.975Z,1.95
2023-01-04T12:49:45.271Z,2.60
2023-01-04T12:52:34.419Z,2.55
2023-01-04T12:55:10.352Z,2.70
2023-01-04T12:57:45.394Z,2.72
2023-01-04T13:00:25.361Z,2.60
2023-01-04T13:03:24.398Z,2.65
2023-01-04T13:06:10.332Z,2.72
2023-01-04T13:08:41.989Z,2.30
2023-01-04T13:11:58.319Z,2.65
2023-01-04T13:14:56.359Z,2.55
2023-01-04T13:17:25.754Z,2.58
2023-01-04T13:19:52.472Z,2.55
2023-01-04T13:22:35.286Z,2.85
2023-01-04T13:25:04.678Z,2.95
2023-01-04T13:27:38.339Z,2.95
2023-01-04T13:30:12.375Z,2.80
2023-01-04T13:33:15.441Z,3.17
2023-01-04T13:35:31.847Z,2.97
2023-01-04T13:38:07.259Z,3.50
2023-01-04T13:40:35.965Z,3.25
2023-01-04T13:43:35.270Z,3.05
2023-01-04T13:46:19.987Z,2.90
2023-01-04T13:48:56.321Z,3.00
2023-01-04T13:51:36.953Z,3.00
2023-01-04T13:54:13.283Z,2.83
2023-01-04T13:56:51.598Z,3.10
2023-01-04T13:59:35.243Z,3.42
2023-01-04T14:02:08.385Z,3.05
2023-01-04T14:04:42.325Z,3.47
2023-01-04T14:07:09.739Z,3.58
2023-01-04T14:09:51.357Z,3.05
2023-01-04T14:12:22.814Z,2.92
2023-01-04T14:15:02.271Z,2.88
2023-01-04T14:17:32.696Z,3.22
2023-01-04T14:20:31.254Z,3.50
2023-01-04T14:22:58.780Z,3.38
2023-01-04T14:25:43.309Z,3.38
2023-01-04T14:28:22.171Z,3.60
2023-01-04T14:31:00.420Z,3.22
2023-01-04T14:33:38.893Z,3.70
2023-01-04T14:36:20.313Z,3.05
2023-01-04T14:39:08.103Z,3.20
2023-01-04T14:42:06.293Z,3.13
2023-01-04T14:44:35.848Z,3.40
2023-01-04T14:47:12.390Z,3.20
2023-01-04T14:49:39.228Z,3.63
2023-01-04T14:52:19.331Z,3.53
2023-01-04T14:54:46.029Z,3.75
2023-01-04T14:57:32.319Z,3.30
2023-01-04T14:59:59.240Z,3.28
2023-01-04T15:02:33.451Z,3.10
2023-01-04T15:05:07.288Z,2.72
2023-01-04T15:07:42.358Z,3.05
2023-01-04T15:10:32.321Z,3.28
2023-01-04T15:13:07.364Z,3.38
2023-01-04T15:15:34.024Z,3.03
2023-01-04T15:18:07.347Z,3.40
2023-01-04T15:20:34.064Z,3.60
2023-01-04T15:23:00.728Z,3.60
2023-01-04T15:25:36.262Z,3.50
2023-01-04T15:28:09.427Z,3.35
2023-01-04T15:30:42.304Z,3.70
2023-01-04T15:33:09.263Z,3.65
2023-01-04T15:35:36.107Z,3.55
2023-01-04T15:38:14.375Z,2.90
2023-01-04T15:40:51.479Z,3.45
2023-01-04T15:43:18.061Z,3.13
2023-01-04T15:45:45.348Z,2.90
2023-01-04T15:48:19.310Z,3.15
2023-01-04T15:50:52.384Z,3.15
2023-01-04T15:53:18.999Z,3.15
2023-01-04T15:55:45.682Z,3.03
2023-01-04T15:58:19.268Z,3.08
2023-01-04T16:01:06.083Z,2.80
2023-01-04T16:03:42.309Z,3.00
2023-01-04T16:06:14.484Z,3.20
2023-01-04T16:08:48.293Z,2.53
2023-01-04T16:11:24.327Z,2.47
2023-01-04T16:13:59.242Z,3.20
2023-01-04T16:16:34.357Z,2.90
2023-01-04T16:19:02.012Z,2.70
2023-01-04T16:21:29.072Z,3.15
2023-01-04T16:24:12.090Z,3.00
2023-01-04T16:26:43.815Z,3.17
2023-01-04T16:29:18.409Z,2.90
2023-01-04T16:31:52.458Z,2.90
2023-01-04T16:34:19.191Z,2.92
2023-01-04T16:36:45.803Z,3.25
2023-01-04T16:39:19.575Z,2.78
2023-01-04T16:41:46.296Z,3.08
2023-01-04T16:44:13.790Z,2.88
2023-01-04T16:46:47.333Z,3.28
2023-01-04T16:49:22.277Z,2.80
2023-01-04T16:51:55.328Z,2.53
2023-01-04T16:54:23.015Z,2.67
2023-01-04T16:57:05.356Z,2.50
2023-01-04T16:59:38.692Z,2.58
2023-01-04T17:02:12.442Z,2.33
2023-01-04T17:04:39.161Z,2.60
2023-01-04T17:07:13.255Z,2.33
2023-01-04T17:09:41.219Z,2.13
2023-01-04T17:15:40.776Z,2.05
2023-01-04T17:17:54.273Z,1.90
2023-01-04T17:20:27.246Z,2.03
2023-01-04T17:22:53.849Z,2.15
2023-01-04T17:25:27.550Z,1.60
2023-01-04T17:28:01.492Z,1.95
2023-01-04T17:30:35.286Z,1.77
2023-01-04T17:33:01.873Z,1.42
2023-01-04T17:35:35.330Z,1.67
2023-01-04T17:38:01.981Z,1.65
2023-01-04T17:40:28.640Z,1.50
2023-01-04T17:43:02.283Z,1.70
2023-01-04T17:45:35.360Z,1.70
2023-01-04T17:48:02.858Z,1.77
2023-01-04T17:50:36.262Z,1.50
2023-01-04T17:53:02.880Z,1.73
2023-01-04T17:55:36.349Z,2.42
2023-01-04T17:58:12.011Z,1.80
2023-01-04T18:00:52.409Z,1.80
2023-01-04T18:03:19.024Z,1.60
2023-01-04T18:06:24.242Z,1.85
2023-01-04T18:08:47.230Z,1.90
2023-01-04T18:11:21.315Z,1.83
2023-01-04T18:13:48.008Z,1.65
2023-01-04T18:16:29.356Z,1.52
2023-01-04T18:18:58.292Z,1.50
2023-01-04T18:21:39.311Z,1.45
2023-01-04T18:29:46.907Z,1.58
2023-01-04T18:32:20.265Z,1.50
2023-01-04T18:34:46.944Z,1.60
2023-01-04T18:37:22.361Z,2.30
2023-01-04T18:39:49.656Z,2.00
2023-01-04T18:42:17.031Z,1.10
2023-01-04T18:44:50.257Z,1.63
2023-01-04T18:47:27.343Z,1.38
2023-01-04T18:50:00.316Z,1.33
2023-01-04T18:52:26.947Z,1.33
2023-01-04T18:55:14.330Z,1.40
2023-01-04T19:00:36.300Z,1.40
2023-01-04T19:03:02.995Z,1.20
2023-01-04T19:05:36.288Z,1.35
2023-01-04T19:08:09.311Z,1.60
2023-01-04T19:10:42.263Z,3.38
2023-01-04T19:13:15.328Z,3.47
2023-01-04T19:15:50.365Z,1.80
2023-01-04T19:18:16.978Z,1.55
2023-01-04T19:20:50.402Z,1.35
2023-01-04T19:23:17.019Z,1.27
2023-01-04T19:25:50.268Z,1.30
2023-01-04T19:28:23.340Z,1.40
2023-01-04T19:30:50.190Z,1.50
2023-01-04T19:33:16.899Z,1.50
2023-01-04T19:35:52.259Z,1.55
2023-01-04T19:38:25.278Z,1.30
2023-01-04T19:41:03.330Z,1.60
2023-01-04T19:43:29.949Z,2.47
2023-01-04T19:46:03.388Z,2.65
2023-01-04T19:48:37.261Z,2.08
2023-01-04T19:51:16.277Z,1.50
2023-01-04T19:53:44.260Z,1.40
2023-01-04T19:56:20.251Z,1.25
2023-01-04T19:59:07.215Z,1.70
2023-01-04T20:01:40.373Z,1.40
2023-01-04T20:04:07.030Z,1.30
2023-01-04T20:06:40.245Z,1.10
2023-01-04T20:09:13.326Z,1.25
2023-01-04T20:11:46.296Z,1.40
2023-01-04T20:14:19.243Z,1.10
2023-01-04T20:16:52.385Z,1.17
2023-01-04T20:19:21.200Z,2.13
2023-01-04T20:21:54.305Z,1.73
2023-01-04T20:24:27.363Z,1.75
2023-01-04T20:26:53.951Z,1.60
2023-01-04T20:29:20.571Z,1.50
2023-01-04T20:31:53.421Z,1.30
2023-01-04T20:34:20.040Z,1.20
2023-01-04T20:36:46.663Z,1.10
2023-01-04T20:39:20.469Z,1.00
2023-01-04T20:42:05.676Z,1.13
2023-01-04T20:44:39.301Z,1.38
2023-01-04T20:47:12.258Z,0.93
2023-01-04T20:49:45.219Z,1.00
2023-01-04T20:52:18.262Z,1.00
2023-01-04T20:54:47.591Z,1.27
2023-01-04T20:57:34.318Z,1.50
2023-01-04T21:00:00.933Z,0.90
2023-01-04T21:02:27.759Z,0.80
2023-01-04T21:05:01.287Z,0.93
2023-01-04T21:07:36.254Z,0.80
2023-01-04T21:10:09.337Z,1.20
2023-01-04T21:12:37.604Z,1.10
2023-01-04T21:15:11.243Z,0.90
2023-01-04T21:17:38.211Z,0.90
2023-01-04T21:20:05.389Z,1.13
2023-01-04T21:22:38.319Z,1.00
2023-01-04T21:25:05.539Z,1.13
2023-01-04T21:27:32.194Z,1.00
2023-01-04T21:30:06.345Z,1.00
2023-01-04T21:32:39.378Z,1.20
2023-01-04T21:35:13.329Z,3.58
2023-01-04T21:37:40.547Z,0.90
2023-01-04T21:40:14.305Z,1.17
2023-01-04T21:42:40.914Z,0.90
2023-01-04T21:45:07.995Z,1.20
2023-01-04T21:47:41.290Z,1.23
2023-01-04T21:50:13.285Z,1.25
2023-01-04T21:52:50.319Z,1.38
2023-01-04T21:55:17.064Z,1.52
2023-01-04T21:58:04.311Z,1.10
2023-01-04T22:00:30.916Z,1.05
2023-01-04T22:03:04.347Z,1.45
2023-01-04T22:05:38.306Z,1.30
2023-01-04T22:08:05.162Z,1.77
2023-01-04T22:10:38.303Z,1.60
2023-01-04T22:13:04.988Z,1.20
2023-01-04T22:15:38.338Z,2.00
2023-01-04T22:18:05.195Z,1.70
2023-01-04T22:20:38.289Z,1.95
2023-01-04T22:23:04.959Z,2.42
2023-01-04T22:25:31.572Z,1.80
2023-01-04T22:28:04.319Z,2.38
2023-01-04T22:30:37.310Z,2.22
2023-01-04T22:33:03.916Z,2.47
2023-01-04T22:35:30.595Z,2.38
2023-01-04T22:38:03.308Z,2.00
2023-01-04T22:40:29.886Z,2.13
2023-01-04T22:43:03.346Z,3.08
2023-01-04T22:45:29.989Z,2.50
2023-01-04T22:48:03.326Z,2.53
2023-01-04T22:50:29.946Z,1.80
2023-01-04T22:52:56.559Z,2.22
2023-01-04T22:55:45.703Z,2.58
2023-01-04T22:58:37.221Z,2.58
2023-01-04T23:01:11.277Z,1.65
2023-01-04T23:03:47.398Z,1.63
2023-01-04T23:06:20.224Z,1.17
2023-01-04T23:08:46.828Z,1.20
2023-01-04T23:11:23.304Z,0.90
2023-01-04T23:13:50.496Z,1.17
2023-01-04T23:16:17.879Z,1.50
2023-01-04T23:18:51.300Z,1.10
2023-01-04T23:21:18.001Z,1.20
2023-01-04T23:23:55.345Z,1.40
2023-01-04T23:26:23.812Z,1.50
2023-01-04T23:28:57.251Z,1.50
2023-01-04T23:31:26.346Z,2.63
2023-01-04T23:34:05.300Z,1.95
2023-01-04T23:36:37.661Z,2.00
2023-01-04T23:39:14.292Z,2.58
2023-01-04T23:41:47.632Z,2.58
2023-01-04T23:44:28.221Z,2.53
2023-01-04T23:47:06.298Z,2.75
2023-01-04T23:49:34.990Z,2.70
2023-01-04T23:52:09.285Z,2.63
2023-01-04T23:54:35.947Z,2.22
2023-01-04T23:57:10.301Z,2.78
2023-01-04T23:59:57.232Z,2.35
